TimeEST,TemperatureF,Dew PointF,Humidity,Sea Level PressureIn,VisibilityMPH,Wind Direction,Wind SpeedMPH,Gust SpeedMPH,PrecipitationIn,Events,Conditions,WindDirDegrees,DateUTC
12:15 AM,21.2,6.8,54,30.40,10.0,ESE,6.9,-,N/A,,Clear,110,2013-01-25 05:15:00
12:35 AM,21.2,5.0,50,30.40,10.0,ESE,11.5,-,N/A,,Clear,120,2013-01-25 05:35:00
12:55 AM,23.0,5.0,46,30.38,10.0,ESE,9.2,16.1,N/A,,Clear,120,2013-01-25 05:55:00
1:15 AM,23.0,5.0,46,30.37,10.0,ESE,6.9,-,N/A,,Clear,120,2013-01-25 06:15:00
1:35 AM,23.0,5.0,46,30.35,10.0,ESE,10.4,-,N/A,,Clear,120,2013-01-25 06:35:00
1:55 AM,21.2,5.0,50,30.33,10.0,ESE,6.9,16.1,N/A,,Clear,120,2013-01-25 06:55:00
2:15 AM,21.2,6.8,54,30.33,10.0,ESE,6.9,-,N/A,,Clear,120,2013-01-25 07:15:00
2:35 AM,21.2,6.8,54,30.33,10.0,ESE,5.8,-,N/A,,Clear,120,2013-01-25 07:35:00
2:55 AM,21.2,6.8,54,30.33,10.0,ESE,5.8,-,N/A,,Clear,120,2013-01-25 07:55:00
3:15 AM,21.2,6.8,54,30.33,10.0,SE,8.1,-,N/A,,Clear,130,2013-01-25 08:15:00
3:35 AM,21.2,6.8,54,30.30,10.0,SE,6.9,-,N/A,,Clear,130,2013-01-25 08:35:00
3:55 AM,21.2,6.8,54,30.29,10.0,SE,6.9,-,N/A,,Scattered Clouds,140,2013-01-25 08:55:00
4:15 AM,23.0,8.6,54,30.28,10.0,ESE,8.1,-,N/A,,Overcast,120,2013-01-25 09:15:00
4:35 AM,23.0,8.6,54,30.27,10.0,ESE,6.9,-,N/A,,Overcast,120,2013-01-25 09:35:00
4:55 AM,23.0,8.6,54,30.25,10.0,ESE,10.4,-,N/A,,Overcast,120,2013-01-25 09:55:00
5:15 AM,23.0,8.6,54,30.23,10.0,ESE,8.1,-,N/A,,Overcast,120,2013-01-25 10:15:00
5:35 AM,23.0,8.6,54,30.22,10.0,ESE,8.1,-,N/A,,Overcast,110,2013-01-25 10:35:00
5:55 AM,23.0,8.6,54,30.23,10.0,ESE,6.9,-,N/A,,Overcast,110,2013-01-25 10:55:00
6:15 AM,23.0,8.6,54,30.22,10.0,ESE,6.9,-,N/A,,Overcast,110,2013-01-25 11:15:00
6:35 AM,23.0,8.6,54,30.21,10.0,ESE,6.9,-,N/A,,Overcast,120,2013-01-25 11:35:00
6:55 AM,23.0,8.6,54,30.20,10.0,ESE,5.8,-,N/A,Snow,Light Snow,120,2013-01-25 11:55:00
7:15 AM,21.2,12.2,68,30.19,2.5,SSE,9.2,-,N/A,Snow,Light Snow,150,2013-01-25 12:15:00
7:35 AM,21.2,14.0,74,30.17,10.0,ESE,5.8,-,N/A,,Overcast,120,2013-01-25 12:35:00
7:55 AM,21.2,14.0,74,30.17,10.0,ESE,5.8,-,N/A,,Overcast,120,2013-01-25 12:55:00
8:35 AM,21.2,14.0,74,30.13,10.0,SSE,6.9,-,N/A,,Overcast,150,2013-01-25 13:35:00
8:55 AM,21.2,17.6,86,30.13,3.0,SSE,4.6,-,N/A,Snow,Light Snow,150,2013-01-25 13:55:00
9:15 AM,21.2,17.6,86,30.13,1.5,SE,4.6,-,N/A,Snow,Light Snow,130,2013-01-25 14:15:00
9:35 AM,21.2,17.6,86,30.12,4.0,SSE,4.6,-,N/A,Snow,Light Snow,150,2013-01-25 14:35:00
9:55 AM,21.2,17.6,86,30.12,7.0,ESE,4.6,-,N/A,,Overcast,110,2013-01-25 14:55:00
10:15 AM,21.2,19.4,93,30.12,10.0,ESE,3.5,-,N/A,,Overcast,110,2013-01-25 15:15:00
10:35 AM,21.2,19.4,93,30.12,1.8,East,3.5,-,N/A,,Overcast,90,2013-01-25 15:35:00
10:55 AM,21.2,19.4,93,30.12,1.5,Calm,Calm,-,N/A,,Overcast,0,2013-01-25 15:55:00
11:15 AM,21.2,21.2,100,30.09,2.0,South,6.9,-,N/A,,Overcast,180,2013-01-25 16:15:00
11:35 AM,23.0,21.2,93,30.09,4.0,SSW,3.5,-,N/A,,Overcast,210,2013-01-25 16:35:00
11:55 AM,23.0,23.0,100,30.10,7.0,SW,4.6,-,N/A,,Overcast,220,2013-01-25 16:55:00
12:15 PM,23.0,23.0,100,30.08,5.0,SW,5.8,-,N/A,,Overcast,230,2013-01-25 17:15:00
12:35 PM,23.0,23.0,100,30.07,5.0,Calm,Calm,-,N/A,,Overcast,0,2013-01-25 17:35:00
12:55 PM,24.8,23.0,93,30.06,5.0,Calm,Calm,-,N/A,,Overcast,0,2013-01-25 17:55:00
1:15 PM,24.8,23.0,93,30.07,4.0,NNW,3.5,-,N/A,,Overcast,330,2013-01-25 18:15:00
1:35 PM,26.6,24.8,93,30.06,3.0,Calm,Calm,-,N/A,,Overcast,0,2013-01-25 18:35:00
1:55 PM,26.6,24.8,93,30.06,4.0,NW,4.6,-,N/A,,Overcast,320,2013-01-25 18:55:00
2:15 PM,26.6,24.8,93,30.04,2.0,Calm,Calm,-,N/A,,Overcast,0,2013-01-25 19:15:00
2:35 PM,26.6,24.8,93,30.05,2.0,WNW,4.6,-,N/A,,Overcast,300,2013-01-25 19:35:00
2:55 PM,26.6,24.8,93,30.05,2.5,WNW,4.6,-,N/A,,Overcast,300,2013-01-25 19:55:00
3:15 PM,26.6,26.6,100,30.05,3.0,NW,3.5,-,N/A,,Overcast,310,2013-01-25 20:15:00
3:35 PM,26.6,26.6,100,30.05,2.5,West,4.6,-,N/A,,Overcast,280,2013-01-25 20:35:00
3:55 PM,26.6,26.6,100,30.06,3.0,WNW,6.9,-,N/A,,Overcast,290,2013-01-25 20:55:00
4:15 PM,28.4,26.6,93,30.06,4.0,WNW,6.9,-,N/A,,Overcast,300,2013-01-25 21:15:00
4:35 PM,28.4,26.6,93,30.08,5.0,NW,6.9,-,N/A,,Overcast,310,2013-01-25 21:35:00
4:55 PM,28.4,26.6,93,30.08,7.0,WNW,8.1,-,N/A,,Overcast,300,2013-01-25 21:55:00
5:15 PM,28.4,26.6,93,30.08,7.0,WNW,5.8,-,N/A,,Overcast,290,2013-01-25 22:15:00
5:35 PM,28.4,26.6,93,30.08,7.0,West,9.2,-,N/A,,Overcast,270,2013-01-25 22:35:00
5:55 PM,28.4,26.6,93,30.08,7.0,West,8.1,-,N/A,,Overcast,280,2013-01-25 22:55:00
6:15 PM,28.4,26.6,93,30.08,7.0,West,9.2,-,N/A,,Overcast,270,2013-01-25 23:15:00
6:35 PM,28.4,26.6,93,30.09,7.0,West,5.8,-,N/A,,Overcast,270,2013-01-25 23:35:00
6:55 PM,28.4,26.6,93,30.11,7.0,West,8.1,-,N/A,,Overcast,270,2013-01-25 23:55:00
7:15 PM,28.4,26.6,93,30.12,7.0,West,5.8,-,N/A,,Overcast,280,2013-01-26 00:15:00
7:35 PM,28.4,26.6,93,30.12,7.0,WNW,6.9,-,N/A,,Overcast,290,2013-01-26 00:35:00
7:55 PM,28.4,26.6,93,30.12,10.0,West,8.1,-,N/A,,Overcast,280,2013-01-26 00:55:00
8:15 PM,28.4,26.6,93,30.13,10.0,West,5.8,-,N/A,,Overcast,280,2013-01-26 01:15:00
8:35 PM,28.4,26.6,93,30.14,10.0,West,6.9,-,N/A,,Overcast,280,2013-01-26 01:35:00
8:55 PM,28.4,26.6,93,30.14,10.0,West,6.9,-,N/A,,Overcast,280,2013-01-26 01:55:00
9:15 PM,28.4,26.6,93,30.15,10.0,West,9.2,-,N/A,,Overcast,270,2013-01-26 02:15:00
9:35 PM,28.4,26.6,93,30.15,7.0,West,9.2,-,N/A,,Overcast,280,2013-01-26 02:35:00
9:55 PM,28.4,26.6,93,30.16,7.0,West,8.1,-,N/A,,Overcast,280,2013-01-26 02:55:00
10:15 PM,28.4,26.6,93,30.16,10.0,WNW,6.9,-,N/A,,Overcast,290,2013-01-26 03:15:00
10:35 PM,28.4,26.6,93,30.17,7.0,West,4.6,-,N/A,,Overcast,280,2013-01-26 03:35:00
10:55 PM,28.4,26.6,93,30.18,7.0,WNW,8.1,-,N/A,,Overcast,290,2013-01-26 03:55:00
11:15 PM,28.4,26.6,93,30.18,10.0,West,4.6,-,N/A,,Overcast,270,2013-01-26 04:15:00
11:35 PM,28.4,26.6,93,30.19,10.0,West,4.6,-,N/A,,Overcast,270,2013-01-26 04:35:00
11:55 PM,28.4,26.6,93,30.19,10.0,West,4.6,-,N/A,,Overcast,270,2013-01-26 04:55:00